sensor_id;sensor_type;location;lat;lon;timestamp;temperature;humidity
9497;DHT22;4786;51.270;4.456;2022-11-11T00:01:06;11.80;99.90
9497;DHT22;4786;51.270;4.456;2022-11-11T00:03:32;11.70;99.90
9497;DHT22;4786;51.270;4.456;2022-11-11T00:06:06;11.70;99.90
9497;DHT22;4786;51.270;4.456;2022-11-11T00:08:32;11.80;99.90
9497;DHT22;4786;51.270;4.456;2022-11-11T00:11:09;11.80;99.90
9497;DHT22;4786;51.270;4.456;2022-11-11T00:13:35;11.70;99.90
9497;DHT22;4786;51.270;4.456;2022-11-11T00:18:32;11.70;99.90
9497;DHT22;4786;51.270;4.456;2022-11-11T00:21:16;11.70;99.90
9497;DHT22;4786;51.270;4.456;2022-11-11T00:24:00;11.70;99.90
9497;DHT22;4786;51.270;4.456;2022-11-11T00:26:44;11.90;99.90
9497;DHT22;4786;51.270;4.456;2022-11-11T00:29:10;11.70;99.90
9497;DHT22;4786;51.270;4.456;2022-11-11T00:31:37;11.70;99.90
9497;DHT22;4786;51.270;4.456;2022-11-11T00:34:22;11.70;99.90
9497;DHT22;4786;51.270;4.456;2022-11-11T00:36:48;11.70;99.90
9497;DHT22;4786;51.270;4.456;2022-11-11T00:39:14;11.70;99.90
9497;DHT22;4786;51.270;4.456;2022-11-11T00:41:39;11.70;99.90
9497;DHT22;4786;51.270;4.456;2022-11-11T00:44:05;11.70;99.90
9497;DHT22;4786;51.270;4.456;2022-11-11T00:46:31;11.70;99.90
9497;DHT22;4786;51.270;4.456;2022-11-11T00:49:15;11.70;99.90
9497;DHT22;4786;51.270;4.456;2022-11-11T00:51:59;11.70;99.90
9497;DHT22;4786;51.270;4.456;2022-11-11T00:54:25;11.60;99.90
9497;DHT22;4786;51.270;4.456;2022-11-11T00:56:51;11.70;99.90
9497;DHT22;4786;51.270;4.456;2022-11-11T00:59:16;11.70;99.90
9497;DHT22;4786;51.270;4.456;2022-11-11T01:01:42;11.80;99.90
9497;DHT22;4786;51.270;4.456;2022-11-11T01:04:08;11.70;99.90
9497;DHT22;4786;51.270;4.456;2022-11-11T01:06:34;11.70;99.90
9497;DHT22;4786;51.270;4.456;2022-11-11T01:09:05;11.70;99.90
9497;DHT22;4786;51.270;4.456;2022-11-11T01:11:30;11.70;99.90
9497;DHT22;4786;51.270;4.456;2022-11-11T01:13:56;11.80;99.90
9497;DHT22;4786;51.270;4.456;2022-11-11T01:16:25;11.80;99.90
9497;DHT22;4786;51.270;4.456;2022-11-11T01:18:52;11.70;99.90
9497;DHT22;4786;51.270;4.456;2022-11-11T01:21:20;11.70;99.90
9497;DHT22;4786;51.270;4.456;2022-11-11T01:23:49;11.80;99.90
9497;DHT22;4786;51.270;4.456;2022-11-11T01:26:23;11.80;99.90
9497;DHT22;4786;51.270;4.456;2022-11-11T01:28:55;11.90;99.90
9497;DHT22;4786;51.270;4.456;2022-11-11T01:31:23;11.80;99.90
9497;DHT22;4786;51.270;4.456;2022-11-11T01:33:49;11.80;99.90
9497;DHT22;4786;51.270;4.456;2022-11-11T01:36:20;11.80;99.90
9497;DHT22;4786;51.270;4.456;2022-11-11T01:38:49;11.80;99.90
9497;DHT22;4786;51.270;4.456;2022-11-11T01:41:18;11.80;99.90
9497;DHT22;4786;51.270;4.456;2022-11-11T01:44:40;11.70;99.90
9497;DHT22;4786;51.270;4.456;2022-11-11T01:47:04;11.70;99.90
9497;DHT22;4786;51.270;4.456;2022-11-11T01:49:45;11.70;99.90
9497;DHT22;4786;51.270;4.456;2022-11-11T01:59:51;11.70;99.90
9497;DHT22;4786;51.270;4.456;2022-11-11T02:02:45;11.60;99.90
9497;DHT22;4786;51.270;4.456;2022-11-11T02:05:15;11.60;99.90
9497;DHT22;4786;51.270;4.456;2022-11-11T02:08:03;11.50;99.90
9497;DHT22;4786;51.270;4.456;2022-11-11T02:10:32;11.50;99.90
9497;DHT22;4786;51.270;4.456;2022-11-11T02:12:58;11.80;99.90
9497;DHT22;4786;51.270;4.456;2022-11-11T02:15:44;11.50;99.90
9497;DHT22;4786;51.270;4.456;2022-11-11T02:18:10;11.60;99.90
9497;DHT22;4786;51.270;4.456;2022-11-11T02:20:39;11.50;99.90
9497;DHT22;4786;51.270;4.456;2022-11-11T02:23:15;11.50;99.90
9497;DHT22;4786;51.270;4.456;2022-11-11T02:25:46;11.40;99.90
9497;DHT22;4786;51.270;4.456;2022-11-11T02:28:13;11.50;99.90
9497;DHT22;4786;51.270;4.456;2022-11-11T02:30:39;11.30;99.90
9497;DHT22;4786;51.270;4.456;2022-11-11T02:33:05;11.40;99.90
9497;DHT22;4786;51.270;4.456;2022-11-11T02:35:33;11.50;99.90
9497;DHT22;4786;51.270;4.456;2022-11-11T02:38:00;11.40;99.90
9497;DHT22;4786;51.270;4.456;2022-11-11T02:40:39;11.40;99.90
9497;DHT22;4786;51.270;4.456;2022-11-11T02:43:32;11.40;99.90
9497;DHT22;4786;51.270;4.456;2022-11-11T02:45:59;11.40;99.90
9497;DHT22;4786;51.270;4.456;2022-11-11T02:48:25;11.40;99.90
9497;DHT22;4786;51.270;4.456;2022-11-11T02:50:52;11.40;99.90
9497;DHT22;4786;51.270;4.456;2022-11-11T02:53:18;11.50;99.90
9497;DHT22;4786;51.270;4.456;2022-11-11T02:55:44;11.70;99.90
9497;DHT22;4786;51.270;4.456;2022-11-11T02:58:10;11.50;99.90
9497;DHT22;4786;51.270;4.456;2022-11-11T03:00:37;11.50;99.90
9497;DHT22;4786;51.270;4.456;2022-11-11T03:03:03;11.50;99.90
9497;DHT22;4786;51.270;4.456;2022-11-11T03:05:29;11.50;99.90
9497;DHT22;4786;51.270;4.456;2022-11-11T03:07:55;11.50;99.90
9497;DHT22;4786;51.270;4.456;2022-11-11T03:10:21;11.60;99.90
9497;DHT22;4786;51.270;4.456;2022-11-11T03:12:47;11.60;99.90
9497;DHT22;4786;51.270;4.456;2022-11-11T03:15:13;11.60;99.90
9497;DHT22;4786;51.270;4.456;2022-11-11T03:17:38;11.50;99.90
9497;DHT22;4786;51.270;4.456;2022-11-11T03:20:15;11.60;99.90
9497;DHT22;4786;51.270;4.456;2022-11-11T03:25:26;11.50;99.90
9497;DHT22;4786;51.270;4.456;2022-11-11T03:28:24;11.30;99.90
9497;DHT22;4786;51.270;4.456;2022-11-11T03:30:50;11.20;99.90
9497;DHT22;4786;51.270;4.456;2022-11-11T03:33:17;11.20;99.90
9497;DHT22;4786;51.270;4.456;2022-11-11T03:35:45;11.20;99.90
9497;DHT22;4786;51.270;4.456;2022-11-11T03:38:12;11.20;99.90
9497;DHT22;4786;51.270;4.456;2022-11-11T03:40:51;11.20;99.90
9497;DHT22;4786;51.270;4.456;2022-11-11T03:43:19;11.20;99.90
9497;DHT22;4786;51.270;4.456;2022-11-11T03:45:46;11.20;99.90
9497;DHT22;4786;51.270;4.456;2022-11-11T03:48:12;11.20;99.90
9497;DHT22;4786;51.270;4.456;2022-11-11T03:50:38;11.20;99.90
9497;DHT22;4786;51.270;4.456;2022-11-11T03:53:05;11.20;99.90
9497;DHT22;4786;51.270;4.456;2022-11-11T03:55:30;11.20;99.90
9497;DHT22;4786;51.270;4.456;2022-11-11T03:57:56;11.10;99.90
9497;DHT22;4786;51.270;4.456;2022-11-11T04:00:25;11.20;99.90
9497;DHT22;4786;51.270;4.456;2022-11-11T04:02:51;11.00;99.90
9497;DHT22;4786;51.270;4.456;2022-11-11T04:05:35;10.90;99.90
9497;DHT22;4786;51.270;4.456;2022-11-11T04:08:20;11.00;99.90
9497;DHT22;4786;51.270;4.456;2022-11-11T04:11:22;11.00;99.90
9497;DHT22;4786;51.270;4.456;2022-11-11T04:13:49;11.20;99.90
9497;DHT22;4786;51.270;4.456;2022-11-11T04:16:33;11.00;99.90
9497;DHT22;4786;51.270;4.456;2022-11-11T04:18:59;10.80;99.90
9497;DHT22;4786;51.270;4.456;2022-11-11T04:21:43;11.10;99.90
9497;DHT22;4786;51.270;4.456;2022-11-11T04:24:10;10.90;99.90
9497;DHT22;4786;51.270;4.456;2022-11-11T04:26:57;11.00;99.90
9497;DHT22;4786;51.270;4.456;2022-11-11T04:29:23;11.00;99.90
9497;DHT22;4786;51.270;4.456;2022-11-11T04:32:15;11.00;99.90
9497;DHT22;4786;51.270;4.456;2022-11-11T04:35:08;11.00;99.90
9497;DHT22;4786;51.270;4.456;2022-11-11T04:37:36;11.00;99.90
9497;DHT22;4786;51.270;4.456;2022-11-11T04:40:03;11.10;99.90
9497;DHT22;4786;51.270;4.456;2022-11-11T04:42:47;10.90;99.90
9497;DHT22;4786;51.270;4.456;2022-11-11T04:45:13;10.90;99.90
9497;DHT22;4786;51.270;4.456;2022-11-11T04:48:04;10.90;99.90
9497;DHT22;4786;51.270;4.456;2022-11-11T04:50:41;10.90;99.90
9497;DHT22;4786;51.270;4.456;2022-11-11T04:53:11;10.80;99.90
9497;DHT22;4786;51.270;4.456;2022-11-11T04:55:38;10.90;99.90
9497;DHT22;4786;51.270;4.456;2022-11-11T04:58:25;11.00;99.90
9497;DHT22;4786;51.270;4.456;2022-11-11T05:00:51;10.90;99.90
9497;DHT22;4786;51.270;4.456;2022-11-11T05:03:18;11.10;99.90
9497;DHT22;4786;51.270;4.456;2022-11-11T05:08:30;10.90;99.90
9497;DHT22;4786;51.270;4.456;2022-11-11T05:11:15;11.00;99.90
9497;DHT22;4786;51.270;4.456;2022-11-11T05:13:41;11.00;99.90
9497;DHT22;4786;51.270;4.456;2022-11-11T05:16:28;10.90;99.90
9497;DHT22;4786;51.270;4.456;2022-11-11T05:19:14;11.00;99.90
9497;DHT22;4786;51.270;4.456;2022-11-11T05:22:23;11.00;99.90
9497;DHT22;4786;51.270;4.456;2022-11-11T05:24:50;11.00;99.90
9497;DHT22;4786;51.270;4.456;2022-11-11T05:27:34;10.90;99.90
9497;DHT22;4786;51.270;4.456;2022-11-11T05:30:01;11.00;99.90
9497;DHT22;4786;51.270;4.456;2022-11-11T05:32:26;10.80;99.90
9497;DHT22;4786;51.270;4.456;2022-11-11T05:34:53;11.00;99.90
9497;DHT22;4786;51.270;4.456;2022-11-11T05:37:19;10.80;99.90
9497;DHT22;4786;51.270;4.456;2022-11-11T05:39:45;10.80;99.90
9497;DHT22;4786;51.270;4.456;2022-11-11T05:42:11;10.80;99.90
9497;DHT22;4786;51.270;4.456;2022-11-11T05:44:37;10.80;99.90
9497;DHT22;4786;51.270;4.456;2022-11-11T05:47:03;10.80;99.90
9497;DHT22;4786;51.270;4.456;2022-11-11T05:49:29;10.80;99.90
9497;DHT22;4786;51.270;4.456;2022-11-11T05:51:55;10.80;99.90
9497;DHT22;4786;51.270;4.456;2022-11-11T05:54:22;10.70;99.90
9497;DHT22;4786;51.270;4.456;2022-11-11T05:56:48;10.80;99.90
9497;DHT22;4786;51.270;4.456;2022-11-11T05:59:13;10.70;99.90
9497;DHT22;4786;51.270;4.456;2022-11-11T06:01:40;10.60;99.90
9497;DHT22;4786;51.270;4.456;2022-11-11T06:04:06;10.70;99.90
9497;DHT22;4786;51.270;4.456;2022-11-11T06:06:33;10.70;99.90
9497;DHT22;4786;51.270;4.456;2022-11-11T06:08:59;10.60;99.90
9497;DHT22;4786;51.270;4.456;2022-11-11T06:11:26;10.70;99.90
9497;DHT22;4786;51.270;4.456;2022-11-11T06:13:52;10.70;99.90
9497;DHT22;4786;51.270;4.456;2022-11-11T06:16:18;10.90;99.90
9497;DHT22;4786;51.270;4.456;2022-11-11T06:18:44;10.90;99.90
9497;DHT22;4786;51.270;4.456;2022-11-11T06:21:10;10.80;99.90
9497;DHT22;4786;51.270;4.456;2022-11-11T06:23:36;10.90;99.90
9497;DHT22;4786;51.270;4.456;2022-11-11T06:26:02;10.90;99.90
9497;DHT22;4786;51.270;4.456;2022-11-11T06:31:04;10.70;99.90
9497;DHT22;4786;51.270;4.456;2022-11-11T06:33:32;10.90;99.90
9497;DHT22;4786;51.270;4.456;2022-11-11T06:35:58;10.90;99.90
9497;DHT22;4786;51.270;4.456;2022-11-11T06:38:24;10.80;99.90
9497;DHT22;4786;51.270;4.456;2022-11-11T06:40:50;10.80;99.90
9497;DHT22;4786;51.270;4.456;2022-11-11T06:43:17;10.80;99.90
9497;DHT22;4786;51.270;4.456;2022-11-11T06:45:42;10.70;99.90
9497;DHT22;4786;51.270;4.456;2022-11-11T06:48:08;10.60;99.90
9497;DHT22;4786;51.270;4.456;2022-11-11T06:50:35;10.50;99.90
9497;DHT22;4786;51.270;4.456;2022-11-11T06:53:14;10.50;99.90
9497;DHT22;4786;51.270;4.456;2022-11-11T06:55:41;10.60;99.90
9497;DHT22;4786;51.270;4.456;2022-11-11T07:00:38;10.60;99.90
9497;DHT22;4786;51.270;4.456;2022-11-11T07:03:06;10.60;99.90
9497;DHT22;4786;51.270;4.456;2022-11-11T07:05:32;10.60;99.90
9497;DHT22;4786;51.270;4.456;2022-11-11T07:08:07;10.40;99.90
9497;DHT22;4786;51.270;4.456;2022-11-11T07:10:34;10.40;99.90
9497;DHT22;4786;51.270;4.456;2022-11-11T07:13:02;10.40;99.90
9497;DHT22;4786;51.270;4.456;2022-11-11T07:15:28;10.60;99.90
9497;DHT22;4786;51.270;4.456;2022-11-11T07:17:54;10.40;99.90
9497;DHT22;4786;51.270;4.456;2022-11-11T07:20:20;10.40;99.90
9497;DHT22;4786;51.270;4.456;2022-11-11T07:22:46;10.50;99.90
9497;DHT22;4786;51.270;4.456;2022-11-11T07:25:12;10.30;99.90
9497;DHT22;4786;51.270;4.456;2022-11-11T07:27:38;10.30;99.90
9497;DHT22;4786;51.270;4.456;2022-11-11T07:30:05;10.20;99.90
9497;DHT22;4786;51.270;4.456;2022-11-11T07:32:31;10.10;99.90
9497;DHT22;4786;51.270;4.456;2022-11-11T07:34:58;10.10;99.90
9497;DHT22;4786;51.270;4.456;2022-11-11T07:37:24;10.10;99.90
9497;DHT22;4786;51.270;4.456;2022-11-11T07:39:50;10.10;99.90
9497;DHT22;4786;51.270;4.456;2022-11-11T07:42:16;10.10;99.90
9497;DHT22;4786;51.270;4.456;2022-11-11T07:44:42;10.20;99.90
9497;DHT22;4786;51.270;4.456;2022-11-11T07:47:08;10.20;99.90
9497;DHT22;4786;51.270;4.456;2022-11-11T07:49:34;10.30;99.90
9497;DHT22;4786;51.270;4.456;2022-11-11T07:52:00;10.10;99.90
9497;DHT22;4786;51.270;4.456;2022-11-11T07:54:26;10.20;99.90
9497;DHT22;4786;51.270;4.456;2022-11-11T07:56:52;10.20;99.90
9497;DHT22;4786;51.270;4.456;2022-11-11T07:59:18;10.40;99.90
9497;DHT22;4786;51.270;4.456;2022-11-11T08:01:44;10.20;99.90
9497;DHT22;4786;51.270;4.456;2022-11-11T08:04:10;10.40;99.90
9497;DHT22;4786;51.270;4.456;2022-11-11T08:06:36;10.30;99.90
9497;DHT22;4786;51.270;4.456;2022-11-11T08:09:02;10.30;99.90
9497;DHT22;4786;51.270;4.456;2022-11-11T08:11:28;10.30;99.90
9497;DHT22;4786;51.270;4.456;2022-11-11T08:14:12;10.40;99.90
9497;DHT22;4786;51.270;4.456;2022-11-11T08:16:38;10.50;99.90
9497;DHT22;4786;51.270;4.456;2022-11-11T08:19:04;10.50;99.90
9497;DHT22;4786;51.270;4.456;2022-11-11T08:21:30;10.30;99.90
9497;DHT22;4786;51.270;4.456;2022-11-11T08:23:56;10.50;99.90
9497;DHT22;4786;51.270;4.456;2022-11-11T08:26:22;10.60;99.90
9497;DHT22;4786;51.270;4.456;2022-11-11T08:28:50;10.60;99.90
9497;DHT22;4786;51.270;4.456;2022-11-11T08:31:17;10.60;99.90
9497;DHT22;4786;51.270;4.456;2022-11-11T08:33:43;10.50;99.90
9497;DHT22;4786;51.270;4.456;2022-11-11T08:36:09;10.50;99.90
9497;DHT22;4786;51.270;4.456;2022-11-11T08:38:36;10.40;99.90
9497;DHT22;4786;51.270;4.456;2022-11-11T08:41:05;10.40;99.90
9497;DHT22;4786;51.270;4.456;2022-11-11T08:43:31;10.40;99.90
9497;DHT22;4786;51.270;4.456;2022-11-11T08:45:59;10.20;99.90
9497;DHT22;4786;51.270;4.456;2022-11-11T08:48:25;10.30;99.90
9497;DHT22;4786;51.270;4.456;2022-11-11T08:50:52;10.40;99.90
9497;DHT22;4786;51.270;4.456;2022-11-11T08:53:19;10.40;99.90
9497;DHT22;4786;51.270;4.456;2022-11-11T08:55:45;10.50;99.90
9497;DHT22;4786;51.270;4.456;2022-11-11T08:58:12;10.50;99.90
9497;DHT22;4786;51.270;4.456;2022-11-11T09:00:38;10.60;99.90
9497;DHT22;4786;51.270;4.456;2022-11-11T09:03:07;10.60;99.90
9497;DHT22;4786;51.270;4.456;2022-11-11T09:05:37;10.70;99.90
9497;DHT22;4786;51.270;4.456;2022-11-11T09:08:04;10.70;99.90
9497;DHT22;4786;51.270;4.456;2022-11-11T09:10:32;10.80;99.90
9497;DHT22;4786;51.270;4.456;2022-11-11T09:12:58;10.90;99.90
9497;DHT22;4786;51.270;4.456;2022-11-11T09:15:25;10.90;99.90
9497;DHT22;4786;51.270;4.456;2022-11-11T09:17:51;11.00;99.90
9497;DHT22;4786;51.270;4.456;2022-11-11T09:20:17;11.00;99.90
9497;DHT22;4786;51.270;4.456;2022-11-11T09:22:44;11.00;99.90
9497;DHT22;4786;51.270;4.456;2022-11-11T09:25:11;11.10;99.90
9497;DHT22;4786;51.270;4.456;2022-11-11T09:27:37;11.10;99.90
9497;DHT22;4786;51.270;4.456;2022-11-11T09:30:03;11.20;99.90
9497;DHT22;4786;51.270;4.456;2022-11-11T09:32:31;11.30;99.90
9497;DHT22;4786;51.270;4.456;2022-11-11T09:34:56;11.30;99.90
9497;DHT22;4786;51.270;4.456;2022-11-11T09:37:23;11.40;99.90
9497;DHT22;4786;51.270;4.456;2022-11-11T09:39:49;11.50;99.90
9497;DHT22;4786;51.270;4.456;2022-11-11T09:42:37;11.50;99.90
9497;DHT22;4786;51.270;4.456;2022-11-11T09:45:14;11.60;99.90
9497;DHT22;4786;51.270;4.456;2022-11-11T09:50:36;11.70;99.90
9497;DHT22;4786;51.270;4.456;2022-11-11T09:58:43;11.80;99.90
9497;DHT22;4786;51.270;4.456;2022-11-11T10:01:25;11.90;99.90
9497;DHT22;4786;51.270;4.456;2022-11-11T10:04:19;11.90;99.90
9497;DHT22;4786;51.270;4.456;2022-11-11T10:06:49;11.80;99.90
9497;DHT22;4786;51.270;4.456;2022-11-11T10:14:35;11.80;99.90
9497;DHT22;4786;51.270;4.456;2022-11-11T10:20:15;11.90;99.90
9497;DHT22;4786;51.270;4.456;2022-11-11T10:22:45;11.90;99.90
9497;DHT22;4786;51.270;4.456;2022-11-11T10:27:42;12.10;99.90
9497;DHT22;4786;51.270;4.456;2022-11-11T10:30:22;12.00;99.90
9497;DHT22;4786;51.270;4.456;2022-11-11T10:35:24;12.10;99.90
9497;DHT22;4786;51.270;4.456;2022-11-11T10:40:51;12.20;99.90
9497;DHT22;4786;51.270;4.456;2022-11-11T10:43:28;12.30;99.90
9497;DHT22;4786;51.270;4.456;2022-11-11T10:46:08;12.40;99.90
9497;DHT22;4786;51.270;4.456;2022-11-11T10:54:44;12.60;99.90
9497;DHT22;4786;51.270;4.456;2022-11-11T10:57:17;12.60;99.90
9497;DHT22;4786;51.270;4.456;2022-11-11T10:59:46;12.70;99.90
9497;DHT22;4786;51.270;4.456;2022-11-11T11:02:23;12.70;99.90
9497;DHT22;4786;51.270;4.456;2022-11-11T11:07:44;12.90;99.90
9497;DHT22;4786;51.270;4.456;2022-11-11T11:13:08;13.10;99.90
9497;DHT22;4786;51.270;4.456;2022-11-11T11:15:43;13.30;99.90
9497;DHT22;4786;51.270;4.456;2022-11-11T11:18:14;13.40;99.90
9497;DHT22;4786;51.270;4.456;2022-11-11T11:21:02;13.40;99.90
9497;DHT22;4786;51.270;4.456;2022-11-11T11:23:39;13.60;99.90
9497;DHT22;4786;51.270;4.456;2022-11-11T11:26:06;13.70;99.90
9497;DHT22;4786;51.270;4.456;2022-11-11T11:28:33;13.90;99.90
9497;DHT22;4786;51.270;4.456;2022-11-11T11:31:06;14.00;99.90
9497;DHT22;4786;51.270;4.456;2022-11-11T11:33:54;14.10;99.90
9497;DHT22;4786;51.270;4.456;2022-11-11T11:36:21;14.10;99.90
9497;DHT22;4786;51.270;4.456;2022-11-11T11:38:48;14.20;99.90
9497;DHT22;4786;51.270;4.456;2022-11-11T11:41:41;14.20;99.90
9497;DHT22;4786;51.270;4.456;2022-11-11T11:44:27;14.40;99.90
9497;DHT22;4786;51.270;4.456;2022-11-11T11:55:09;14.30;99.90
9497;DHT22;4786;51.270;4.456;2022-11-11T12:00:30;14.20;99.90
9497;DHT22;4786;51.270;4.456;2022-11-11T12:09:07;14.30;99.90
9497;DHT22;4786;51.270;4.456;2022-11-11T12:11:37;14.30;99.90
9497;DHT22;4786;51.270;4.456;2022-11-11T12:14:22;14.20;99.90
9497;DHT22;4786;51.270;4.456;2022-11-11T12:16:52;14.10;99.90
9497;DHT22;4786;51.270;4.456;2022-11-11T12:21:57;14.20;99.90
9497;DHT22;4786;51.270;4.456;2022-11-11T12:24:54;14.30;99.90
9497;DHT22;4786;51.270;4.456;2022-11-11T12:27:36;14.30;99.90
9497;DHT22;4786;51.270;4.456;2022-11-11T12:30:23;14.40;99.90
9497;DHT22;4786;51.270;4.456;2022-11-11T12:38:57;14.40;99.90
9497;DHT22;4786;51.270;4.456;2022-11-11T12:42:16;14.40;99.90
9497;DHT22;4786;51.270;4.456;2022-11-11T12:45:17;14.50;99.90
9497;DHT22;4786;51.270;4.456;2022-11-11T12:53:33;14.40;99.90
9497;DHT22;4786;51.270;4.456;2022-11-11T12:56:24;14.30;99.90
9497;DHT22;4786;51.270;4.456;2022-11-11T12:58:59;14.30;99.90
9497;DHT22;4786;51.270;4.456;2022-11-11T13:12:34;14.40;99.90
9497;DHT22;4786;51.270;4.456;2022-11-11T13:15:22;14.40;99.90
9497;DHT22;4786;51.270;4.456;2022-11-11T13:17:49;14.30;99.90
9497;DHT22;4786;51.270;4.456;2022-11-11T13:23:02;14.30;99.90
9497;DHT22;4786;51.270;4.456;2022-11-11T13:25:31;14.30;99.90
9497;DHT22;4786;51.270;4.456;2022-11-11T13:28:15;14.20;99.90
9497;DHT22;4786;51.270;4.456;2022-11-11T13:30:50;14.30;99.90
9497;DHT22;4786;51.270;4.456;2022-11-11T13:33:35;14.30;99.90
9497;DHT22;4786;51.270;4.456;2022-11-11T13:36:04;14.30;99.90
9497;DHT22;4786;51.270;4.456;2022-11-11T13:38:44;14.30;99.90
9497;DHT22;4786;51.270;4.456;2022-11-11T13:41:11;14.30;99.90
9497;DHT22;4786;51.270;4.456;2022-11-11T13:43:43;14.30;99.90
9497;DHT22;4786;51.270;4.456;2022-11-11T13:49:09;14.20;99.90
9497;DHT22;4786;51.270;4.456;2022-11-11T13:51:44;14.30;99.90
9497;DHT22;4786;51.270;4.456;2022-11-11T13:54:20;14.30;99.90
9497;DHT22;4786;51.270;4.456;2022-11-11T13:56:49;14.30;99.90
9497;DHT22;4786;51.270;4.456;2022-11-11T13:59:28;14.30;99.90
9497;DHT22;4786;51.270;4.456;2022-11-11T14:07:50;14.40;99.90
9497;DHT22;4786;51.270;4.456;2022-11-11T14:12:53;14.40;99.90
9497;DHT22;4786;51.270;4.456;2022-11-11T14:15:44;14.40;99.90
9497;DHT22;4786;51.270;4.456;2022-11-11T14:20:52;14.50;99.90
9497;DHT22;4786;51.270;4.456;2022-11-11T14:23:40;14.30;99.90
9497;DHT22;4786;51.270;4.456;2022-11-11T14:37:03;14.10;99.90
9497;DHT22;4786;51.270;4.456;2022-11-11T14:39:44;14.20;99.90
9497;DHT22;4786;51.270;4.456;2022-11-11T14:45:05;14.20;99.90
9497;DHT22;4786;51.270;4.456;2022-11-11T14:47:50;14.10;99.90
9497;DHT22;4786;51.270;4.456;2022-11-11T14:53:00;14.10;99.90
9497;DHT22;4786;51.270;4.456;2022-11-11T14:55:29;14.10;99.90
9497;DHT22;4786;51.270;4.456;2022-11-11T14:58:15;14.00;99.90
9497;DHT22;4786;51.270;4.456;2022-11-11T15:00:52;14.20;99.90
9497;DHT22;4786;51.270;4.456;2022-11-11T15:06:13;13.90;99.90
9497;DHT22;4786;51.270;4.456;2022-11-11T15:11:16;13.90;99.90
9497;DHT22;4786;51.270;4.456;2022-11-11T15:25:22;13.70;99.90
9497;DHT22;4786;51.270;4.456;2022-11-11T15:30:21;13.60;99.90
9497;DHT22;4786;51.270;4.456;2022-11-11T15:35:45;13.40;99.90
9497;DHT22;4786;51.270;4.456;2022-11-11T15:38:14;13.40;99.90
9497;DHT22;4786;51.270;4.456;2022-11-11T15:40:54;13.30;99.90
9497;DHT22;4786;51.270;4.456;2022-11-11T15:43:25;13.20;99.90
9497;DHT22;4786;51.270;4.456;2022-11-11T15:45:55;13.10;99.90
9497;DHT22;4786;51.270;4.456;2022-11-11T15:48:29;13.10;99.90
9497;DHT22;4786;51.270;4.456;2022-11-11T15:50:57;13.00;99.90
9497;DHT22;4786;51.270;4.456;2022-11-11T15:53:26;12.90;99.90
9497;DHT22;4786;51.270;4.456;2022-11-11T15:55:57;12.80;99.90
9497;DHT22;4786;51.270;4.456;2022-11-11T15:58:32;12.70;99.90
9497;DHT22;4786;51.270;4.456;2022-11-11T16:01:00;12.60;99.90
9497;DHT22;4786;51.270;4.456;2022-11-11T16:03:42;12.60;99.90
9497;DHT22;4786;51.270;4.456;2022-11-11T16:06:11;12.60;99.90
9497;DHT22;4786;51.270;4.456;2022-11-11T16:08:50;12.50;99.90
9497;DHT22;4786;51.270;4.456;2022-11-11T16:11:18;12.40;99.90
9497;DHT22;4786;51.270;4.456;2022-11-11T16:13:59;12.40;99.90
9497;DHT22;4786;51.270;4.456;2022-11-11T16:16:33;12.30;99.90
9497;DHT22;4786;51.270;4.456;2022-11-11T16:19:08;12.20;99.90
9497;DHT22;4786;51.270;4.456;2022-11-11T16:21:51;12.20;99.90
9497;DHT22;4786;51.270;4.456;2022-11-11T16:24:30;12.10;99.90
9497;DHT22;4786;51.270;4.456;2022-11-11T16:26:57;12.00;99.90
9497;DHT22;4786;51.270;4.456;2022-11-11T16:29:33;12.00;99.90
9497;DHT22;4786;51.270;4.456;2022-11-11T16:32:01;11.90;99.90
9497;DHT22;4786;51.270;4.456;2022-11-11T16:37:12;11.80;99.90
9497;DHT22;4786;51.270;4.456;2022-11-11T16:39:41;11.70;99.90
9497;DHT22;4786;51.270;4.456;2022-11-11T16:42:22;11.70;99.90
9497;DHT22;4786;51.270;4.456;2022-11-11T16:44:57;11.60;99.90
9497;DHT22;4786;51.270;4.456;2022-11-11T16:52:56;11.40;99.90
9497;DHT22;4786;51.270;4.456;2022-11-11T16:57:55;11.30;99.90
9497;DHT22;4786;51.270;4.456;2022-11-11T17:00:22;11.50;99.90
9497;DHT22;4786;51.270;4.456;2022-11-11T17:03:09;11.30;99.90
9497;DHT22;4786;51.270;4.456;2022-11-11T17:05:58;11.30;99.90
9497;DHT22;4786;51.270;4.456;2022-11-11T17:08:39;11.20;99.90
9497;DHT22;4786;51.270;4.456;2022-11-11T17:11:10;11.10;99.90
9497;DHT22;4786;51.270;4.456;2022-11-11T17:13:36;11.10;99.90
9497;DHT22;4786;51.270;4.456;2022-11-11T17:16:04;11.00;99.90
9497;DHT22;4786;51.270;4.456;2022-11-11T17:18:38;11.00;99.90
9497;DHT22;4786;51.270;4.456;2022-11-11T17:21:05;10.90;99.90
9497;DHT22;4786;51.270;4.456;2022-11-11T17:23:31;10.90;99.90
9497;DHT22;4786;51.270;4.456;2022-11-11T17:25:58;10.90;99.90
9497;DHT22;4786;51.270;4.456;2022-11-11T17:28:31;10.80;99.90
9497;DHT22;4786;51.270;4.456;2022-11-11T17:31:01;10.80;99.90
9497;DHT22;4786;51.270;4.456;2022-11-11T17:33:27;10.80;99.90
9497;DHT22;4786;51.270;4.456;2022-11-11T17:35:53;10.80;99.90
9497;DHT22;4786;51.270;4.456;2022-11-11T17:38:19;10.70;99.90
9497;DHT22;4786;51.270;4.456;2022-11-11T17:40:46;10.70;99.90
9497;DHT22;4786;51.270;4.456;2022-11-11T17:43:13;10.70;99.90
9497;DHT22;4786;51.270;4.456;2022-11-11T17:45:39;10.60;99.90
9497;DHT22;4786;51.270;4.456;2022-11-11T17:48:05;10.60;99.90
9497;DHT22;4786;51.270;4.456;2022-11-11T17:50:31;10.60;99.90
9497;DHT22;4786;51.270;4.456;2022-11-11T17:52:57;10.60;99.90
9497;DHT22;4786;51.270;4.456;2022-11-11T17:55:23;10.50;99.90
9497;DHT22;4786;51.270;4.456;2022-11-11T17:57:49;10.50;99.90
9497;DHT22;4786;51.270;4.456;2022-11-11T18:00:16;10.50;99.90
9497;DHT22;4786;51.270;4.456;2022-11-11T18:02:42;10.40;99.90
9497;DHT22;4786;51.270;4.456;2022-11-11T18:05:08;10.40;99.90
9497;DHT22;4786;51.270;4.456;2022-11-11T18:07:34;10.40;99.90
9497;DHT22;4786;51.270;4.456;2022-11-11T18:10:00;10.40;99.90
9497;DHT22;4786;51.270;4.456;2022-11-11T18:12:28;10.40;99.90
9497;DHT22;4786;51.270;4.456;2022-11-11T18:14:53;10.30;99.90
9497;DHT22;4786;51.270;4.456;2022-11-11T18:17:19;10.20;99.90
9497;DHT22;4786;51.270;4.456;2022-11-11T18:19:45;10.20;99.90
9497;DHT22;4786;51.270;4.456;2022-11-11T18:22:11;10.20;99.90
9497;DHT22;4786;51.270;4.456;2022-11-11T18:24:38;10.20;99.90
9497;DHT22;4786;51.270;4.456;2022-11-11T18:27:04;10.10;99.90
9497;DHT22;4786;51.270;4.456;2022-11-11T18:29:30;10.20;99.90
9497;DHT22;4786;51.270;4.456;2022-11-11T18:31:56;10.10;99.90
9497;DHT22;4786;51.270;4.456;2022-11-11T18:34:22;10.10;99.90
9497;DHT22;4786;51.270;4.456;2022-11-11T18:36:53;10.00;99.90
9497;DHT22;4786;51.270;4.456;2022-11-11T18:39:19;10.00;99.90
9497;DHT22;4786;51.270;4.456;2022-11-11T18:41:45;10.00;99.90
9497;DHT22;4786;51.270;4.456;2022-11-11T18:44:11;10.00;99.90
9497;DHT22;4786;51.270;4.456;2022-11-11T18:46:36;10.00;99.90
9497;DHT22;4786;51.270;4.456;2022-11-11T18:49:04;10.00;99.90
9497;DHT22;4786;51.270;4.456;2022-11-11T18:51:31;10.20;99.90
9497;DHT22;4786;51.270;4.456;2022-11-11T18:53:59;10.00;99.90
9497;DHT22;4786;51.270;4.456;2022-11-11T18:56:27;9.90;99.90
9497;DHT22;4786;51.270;4.456;2022-11-11T18:58:57;10.10;99.90
9497;DHT22;4786;51.270;4.456;2022-11-11T19:01:26;9.90;99.90
9497;DHT22;4786;51.270;4.456;2022-11-11T19:03:57;9.90;99.90
9497;DHT22;4786;51.270;4.456;2022-11-11T19:06:25;9.90;99.90
9497;DHT22;4786;51.270;4.456;2022-11-11T19:09:03;9.90;99.90
9497;DHT22;4786;51.270;4.456;2022-11-11T19:11:31;10.00;99.90
9497;DHT22;4786;51.270;4.456;2022-11-11T19:13:58;9.90;99.90